sensor_id;sensor_type;location;lat;lon;timestamp;pressure;altitude;pressure_sealevel;temperature;humidity
58775;BME280;44545;47.480;19.024;2023-05-23T03:13:05;99804.19;;;14.19;100.00
58775;BME280;44545;47.480;19.024;2023-05-23T03:16:09;99809.53;;;14.22;100.00
58775;BME280;44545;47.480;19.024;2023-05-23T03:19:13;99809.69;;;14.27;100.00
58775;BME280;44545;47.480;19.024;2023-05-23T03:22:16;99811.56;;;14.31;100.00
58775;BME280;44545;47.480;19.024;2023-05-23T03:25:18;99814.31;;;14.36;100.00
58775;BME280;44545;47.480;19.024;2023-05-23T03:28:21;99823.16;;;14.39;100.00
58775;BME280;44545;47.480;19.024;2023-05-23T03:31:25;99820.72;;;14.45;100.00
58775;BME280;44545;47.480;19.024;2023-05-23T03:34:28;99820.91;;;14.51;100.00
58775;BME280;44545;47.480;19.024;2023-05-23T03:37:31;99820.38;;;14.62;100.00
58775;BME280;44545;47.480;19.024;2023-05-23T03:40:33;99818.75;;;14.67;100.00
58775;BME280;44545;47.480;19.024;2023-05-23T03:43:36;99809.28;;;14.72;100.00
58775;BME280;44545;47.480;19.024;2023-05-23T03:46:38;99805.84;;;14.74;100.00
58775;BME280;44545;47.480;19.024;2023-05-23T03:49:41;99808.63;;;14.79;100.00
58775;BME280;44545;47.480;19.024;2023-05-23T03:52:46;99812.25;;;14.84;100.00
58775;BME280;44545;47.480;19.024;2023-05-23T03:55:48;99808.97;;;14.93;100.00
58775;BME280;44545;47.480;19.024;2023-05-23T03:58:51;99818.00;;;15.03;100.00
58775;BME280;44545;47.480;19.024;2023-05-23T04:01:53;99809.66;;;15.17;100.00
58775;BME280;44545;47.480;19.024;2023-05-23T04:04:56;99814.22;;;15.25;100.00
58775;BME280;44545;47.480;19.024;2023-05-23T04:07:58;99816.25;;;15.35;100.00
58775;BME280;44545;47.480;19.024;2023-05-23T04:11:02;99823.53;;;15.47;100.00
58775;BME280;44545;47.480;19.024;2023-05-23T04:14:05;99811.44;;;15.53;100.00
58775;BME280;44545;47.480;19.024;2023-05-23T04:17:09;99817.06;;;15.69;100.00
58775;BME280;44545;47.480;19.024;2023-05-23T04:20:13;99820.22;;;15.89;100.00
58775;BME280;44545;47.480;19.024;2023-05-23T04:23:15;99811.09;;;16.11;100.00
58775;BME280;44545;47.480;19.024;2023-05-23T04:26:18;99808.97;;;16.34;100.00
58775;BME280;44545;47.480;19.024;2023-05-23T04:29:21;99804.97;;;16.53;100.00
58775;BME280;44545;47.480;19.024;2023-05-23T04:32:26;99806.84;;;16.58;100.00
58775;BME280;44545;47.480;19.024;2023-05-23T04:35:28;99812.25;;;16.64;100.00
58775;BME280;44545;47.480;19.024;2023-05-23T04:38:30;99810.59;;;16.69;100.00
58775;BME280;44545;47.480;19.024;2023-05-23T04:41:33;99809.63;;;16.66;100.00
58775;BME280;44545;47.480;19.024;2023-05-23T04:44:37;99805.19;;;16.62;100.00
58775;BME280;44545;47.480;19.024;2023-05-23T04:47:40;99815.09;;;16.74;100.00
58775;BME280;44545;47.480;19.024;2023-05-23T04:50:43;99815.31;;;16.86;100.00
58775;BME280;44545;47.480;19.024;2023-05-23T04:53:50;99815.88;;;17.14;100.00
58775;BME280;44545;47.480;19.024;2023-05-23T04:56:54;99809.41;;;17.45;100.00
58775;BME280;44545;47.480;19.024;2023-05-23T04:59:57;99810.59;;;17.64;100.00
58775;BME280;44545;47.480;19.024;2023-05-23T05:03:00;99809.66;;;18.15;99.96
58775;BME280;44545;47.480;19.024;2023-05-23T05:06:02;99806.69;;;18.56;97.42
58775;BME280;44545;47.480;19.024;2023-05-23T05:09:05;99806.56;;;18.44;93.70
58775;BME280;44545;47.480;19.024;2023-05-23T05:12:07;99813.16;;;18.78;90.20
58775;BME280;44545;47.480;19.024;2023-05-23T05:15:10;99806.31;;;18.95;87.65
58775;BME280;44545;47.480;19.024;2023-05-23T05:18:13;99810.09;;;19.20;89.85
58775;BME280;44545;47.480;19.024;2023-05-23T05:21:16;99811.22;;;19.47;85.38
58775;BME280;44545;47.480;19.024;2023-05-23T05:24:18;99810.28;;;19.39;86.90
58775;BME280;44545;47.480;19.024;2023-05-23T05:27:23;99811.50;;;19.73;83.30
58775;BME280;44545;47.480;19.024;2023-05-23T05:30:29;99805.59;;;20.14;79.84
58775;BME280;44545;47.480;19.024;2023-05-23T05:33:32;99804.91;;;20.50;76.65
58775;BME280;44545;47.480;19.024;2023-05-23T05:36:39;99805.03;;;20.69;78.31
58775;BME280;44545;47.480;19.024;2023-05-23T05:39:49;99813.75;;;20.46;75.12
58775;BME280;44545;47.480;19.024;2023-05-23T05:42:52;99799.66;;;20.53;72.35
58775;BME280;44545;47.480;19.024;2023-05-23T05:45:55;99794.53;;;20.96;72.52
58775;BME280;44545;47.480;19.024;2023-05-23T05:48:58;99806.94;;;21.13;72.53
58775;BME280;44545;47.480;19.024;2023-05-23T05:52:00;99796.38;;;21.33;73.03
58775;BME280;44545;47.480;19.024;2023-05-23T05:55:07;99799.94;;;21.78;70.37
58775;BME280;44545;47.480;19.024;2023-05-23T05:58:12;99801.72;;;21.83;68.90
58775;BME280;44545;47.480;19.024;2023-05-23T06:01:20;99801.72;;;21.93;67.01
58775;BME280;44545;47.480;19.024;2023-05-23T06:04:22;99794.63;;;21.92;70.27
58775;BME280;44545;47.480;19.024;2023-05-23T06:07:25;99799.00;;;22.26;66.48
58775;BME280;44545;47.480;19.024;2023-05-23T06:10:28;99798.09;;;22.31;63.08
58775;BME280;44545;47.480;19.024;2023-05-23T06:13:30;99796.31;;;22.36;64.65
58775;BME280;44545;47.480;19.024;2023-05-23T06:16:32;99790.94;;;22.54;64.51
58775;BME280;44545;47.480;19.024;2023-05-23T06:19:35;99800.53;;;22.92;61.74
58775;BME280;44545;47.480;19.024;2023-05-23T06:22:39;99801.28;;;23.20;60.74
58775;BME280;44545;47.480;19.024;2023-05-23T06:25:42;99800.50;;;22.95;62.11
58775;BME280;44545;47.480;19.024;2023-05-23T06:28:44;99797.56;;;23.41;60.25
58775;BME280;44545;47.480;19.024;2023-05-23T06:31:47;99796.47;;;23.67;60.55
58775;BME280;44545;47.480;19.024;2023-05-23T06:34:50;99792.72;;;23.94;57.13
58775;BME280;44545;47.480;19.024;2023-05-23T06:37:52;99791.91;;;23.84;58.16
58775;BME280;44545;47.480;19.024;2023-05-23T06:40:55;99797.78;;;24.21;57.91
58775;BME280;44545;47.480;19.024;2023-05-23T06:43:57;99796.56;;;24.52;56.48
58775;BME280;44545;47.480;19.024;2023-05-23T06:47:00;99801.75;;;24.64;54.33
58775;BME280;44545;47.480;19.024;2023-05-23T06:50:02;99792.59;;;24.83;53.99
58775;BME280;44545;47.480;19.024;2023-05-23T06:53:06;99788.88;;;24.95;53.67
58775;BME280;44545;47.480;19.024;2023-05-23T06:56:08;99781.31;;;25.29;53.17
58775;BME280;44545;47.480;19.024;2023-05-23T06:59:13;99786.28;;;25.52;50.99
58775;BME280;44545;47.480;19.024;2023-05-23T07:02:15;99783.94;;;25.87;52.61
58775;BME280;44545;47.480;19.024;2023-05-23T07:05:18;99781.06;;;25.98;52.14
58775;BME280;44545;47.480;19.024;2023-05-23T07:08:21;99781.19;;;25.90;50.17
58775;BME280;44545;47.480;19.024;2023-05-23T07:11:27;99781.31;;;25.29;50.71
58775;BME280;44545;47.480;19.024;2023-05-23T07:14:30;99779.03;;;24.99;52.50
58775;BME280;44545;47.480;19.024;2023-05-23T07:17:32;99777.69;;;25.34;50.67
58775;BME280;44545;47.480;19.024;2023-05-23T07:20:35;99768.22;;;25.68;48.27
58775;BME280;44545;47.480;19.024;2023-05-23T07:23:40;99769.06;;;25.13;49.64
58775;BME280;44545;47.480;19.024;2023-05-23T07:26:42;99765.63;;;25.64;49.09
58775;BME280;44545;47.480;19.024;2023-05-23T07:29:45;99764.16;;;25.97;50.40
58775;BME280;44545;47.480;19.024;2023-05-23T07:32:48;99771.19;;;26.48;48.57
58775;BME280;44545;47.480;19.024;2023-05-23T07:35:51;99767.09;;;26.30;49.04
58775;BME280;44545;47.480;19.024;2023-05-23T07:38:53;99773.22;;;26.35;49.28
58775;BME280;44545;47.480;19.024;2023-05-23T07:41:56;99767.06;;;26.31;48.22
58775;BME280;44545;47.480;19.024;2023-05-23T07:44:58;99761.12;;;26.15;49.24
58775;BME280;44545;47.480;19.024;2023-05-23T07:48:01;99760.84;;;26.31;48.75
58775;BME280;44545;47.480;19.024;2023-05-23T07:51:04;99764.09;;;26.45;48.47
58775;BME280;44545;47.480;19.024;2023-05-23T07:54:06;99763.88;;;26.57;50.94
58775;BME280;44545;47.480;19.024;2023-05-23T07:57:09;99764.94;;;26.91;47.11
58775;BME280;44545;47.480;19.024;2023-05-23T08:00:13;99759.81;;;27.22;46.20
58775;BME280;44545;47.480;19.024;2023-05-23T08:03:15;99754.09;;;27.37;46.97
58775;BME280;44545;47.480;19.024;2023-05-23T08:06:22;99754.78;;;27.81;45.58
58775;BME280;44545;47.480;19.024;2023-05-23T08:09:24;99756.47;;;27.85;44.73
58775;BME280;44545;47.480;19.024;2023-05-23T08:12:30;99752.38;;;27.69;45.37
58775;BME280;44545;47.480;19.024;2023-05-23T08:15:34;99754.00;;;27.40;44.74
58775;BME280;44545;47.480;19.024;2023-05-23T08:18:37;99742.16;;;27.49;48.25
58775;BME280;44545;47.480;19.024;2023-05-23T08:21:40;99748.66;;;28.09;46.12
58775;BME280;44545;47.480;19.024;2023-05-23T08:24:43;99750.75;;;27.62;45.48
58775;BME280;44545;47.480;19.024;2023-05-23T08:27:46;99749.31;;;27.49;46.38
58775;BME280;44545;47.480;19.024;2023-05-23T08:30:50;99750.44;;;27.74;45.34
58775;BME280;44545;47.480;19.024;2023-05-23T08:33:53;99762.88;;;27.42;44.66
58775;BME280;44545;47.480;19.024;2023-05-23T08:36:56;99758.91;;;27.21;45.37
58775;BME280;44545;47.480;19.024;2023-05-23T08:39:59;99752.41;;;26.94;47.99
58775;BME280;44545;47.480;19.024;2023-05-23T08:43:04;99750.34;;;27.79;45.16
58775;BME280;44545;47.480;19.024;2023-05-23T08:46:06;99743.16;;;28.46;44.39
58775;BME280;44545;47.480;19.024;2023-05-23T08:49:10;99739.34;;;28.53;44.15
58775;BME280;44545;47.480;19.024;2023-05-23T08:52:17;99740.75;;;28.04;45.17
58775;BME280;44545;47.480;19.024;2023-05-23T08:55:27;99751.97;;;27.86;44.69
58775;BME280;44545;47.480;19.024;2023-05-23T08:58:30;99746.03;;;28.70;44.07
58775;BME280;44545;47.480;19.024;2023-05-23T09:01:37;99743.97;;;29.36;42.89
58775;BME280;44545;47.480;19.024;2023-05-23T09:04:41;99744.28;;;29.53;40.82
58775;BME280;44545;47.480;19.024;2023-05-23T09:07:46;99746.97;;;29.53;42.17
58775;BME280;44545;47.480;19.024;2023-05-23T09:10:49;99740.97;;;28.89;42.55
58775;BME280;44545;47.480;19.024;2023-05-23T09:13:52;99748.53;;;29.87;40.94
58775;BME280;44545;47.480;19.024;2023-05-23T09:17:00;99751.56;;;30.99;40.81
58775;BME280;44545;47.480;19.024;2023-05-23T09:20:14;99753.22;;;30.79;38.45
58775;BME280;44545;47.480;19.024;2023-05-23T09:23:17;99743.44;;;31.87;37.14
58775;BME280;44545;47.480;19.024;2023-05-23T09:26:20;99747.97;;;31.44;37.18
58775;BME280;44545;47.480;19.024;2023-05-23T09:29:23;99741.28;;;32.75;36.00
58775;BME280;44545;47.480;19.024;2023-05-23T09:32:26;99735.56;;;33.00;35.88
58775;BME280;44545;47.480;19.024;2023-05-23T09:35:28;99730.19;;;32.03;35.69
58775;BME280;44545;47.480;19.024;2023-05-23T09:38:31;99745.06;;;31.26;36.52
58775;BME280;44545;47.480;19.024;2023-05-23T09:41:34;99731.03;;;32.44;35.29
58775;BME280;44545;47.480;19.024;2023-05-23T09:44:40;99737.16;;;34.63;32.30
58775;BME280;44545;47.480;19.024;2023-05-23T09:47:50;99721.69;;;38.25;27.99
58775;BME280;44545;47.480;19.024;2023-05-23T09:50:54;99719.13;;;39.82;26.11
58775;BME280;44545;47.480;19.024;2023-05-23T09:53:57;99721.94;;;36.00;28.32
58775;BME280;44545;47.480;19.024;2023-05-23T09:57:01;99719.31;;;37.80;27.17
58775;BME280;44545;47.480;19.024;2023-05-23T10:00:04;99715.06;;;37.63;26.05
58775;BME280;44545;47.480;19.024;2023-05-23T10:03:15;99715.47;;;40.05;23.80
58775;BME280;44545;47.480;19.024;2023-05-23T10:06:38;99720.50;;;41.34;21.64
58775;BME280;44545;47.480;19.024;2023-05-23T10:09:47;99714.84;;;40.02;22.49
58775;BME280;44545;47.480;19.024;2023-05-23T10:12:55;99711.13;;;41.04;21.71
58775;BME280;44545;47.480;19.024;2023-05-23T10:16:04;99710.41;;;42.51;19.83
58775;BME280;44545;47.480;19.024;2023-05-23T10:19:50;99711.09;;;43.43;19.17
58775;BME280;44545;47.480;19.024;2023-05-23T10:22:55;99708.03;;;45.25;17.33
58775;BME280;44545;47.480;19.024;2023-05-23T10:25:58;99704.81;;;45.83;16.44
58775;BME280;44545;47.480;19.024;2023-05-23T10:29:00;99694.75;;;40.93;20.43
58775;BME280;44545;47.480;19.024;2023-05-23T10:32:05;99704.13;;;40.34;21.75
58775;BME280;44545;47.480;19.024;2023-05-23T10:35:22;99694.75;;;36.44;25.25
58775;BME280;44545;47.480;19.024;2023-05-23T10:38:36;99689.19;;;33.46;30.04
58775;BME280;44545;47.480;19.024;2023-05-23T10:41:48;99688.13;;;34.51;28.69
58775;BME280;44545;47.480;19.024;2023-05-23T10:45:13;99693.69;;;32.73;30.67
58775;BME280;44545;47.480;19.024;2023-05-23T10:48:31;99695.31;;;34.68;29.03
58775;BME280;44545;47.480;19.024;2023-05-23T10:51:37;99690.38;;;33.04;32.20
58775;BME280;44545;47.480;19.024;2023-05-23T10:54:46;99677.97;;;36.66;27.11
58775;BME280;44545;47.480;19.024;2023-05-23T10:58:08;99667.19;;;39.00;23.33
58775;BME280;44545;47.480;19.024;2023-05-23T11:01:15;99675.84;;;39.89;22.34
58775;BME280;44545;47.480;19.024;2023-05-23T11:04:25;99676.47;;;37.44;24.70
58775;BME280;44545;47.480;19.024;2023-05-23T11:07:31;99675.97;;;36.27;26.85
58775;BME280;44545;47.480;19.024;2023-05-23T11:10:58;99666.75;;;38.44;23.95
58775;BME280;44545;47.480;19.024;2023-05-23T11:14:01;99670.44;;;39.05;23.28
58775;BME280;44545;47.480;19.024;2023-05-23T11:17:17;99652.69;;;37.60;23.95
58775;BME280;44545;47.480;19.024;2023-05-23T11:20:22;99646.00;;;35.09;27.50
58775;BME280;44545;47.480;19.024;2023-05-23T11:23:39;99648.06;;;33.05;30.32
58775;BME280;44545;47.480;19.024;2023-05-23T11:26:52;99651.97;;;31.62;31.77
58775;BME280;44545;47.480;19.024;2023-05-23T11:33:10;99648.94;;;31.49;33.30
58775;BME280;44545;47.480;19.024;2023-05-23T11:36:20;99650.44;;;30.46;34.81
58775;BME280;44545;47.480;19.024;2023-05-23T11:39:23;99646.69;;;30.50;36.69
58775;BME280;44545;47.480;19.024;2023-05-23T11:42:25;99639.44;;;30.05;36.87
58775;BME280;44545;47.480;19.024;2023-05-23T11:45:28;99632.09;;;29.35;38.07
58775;BME280;44545;47.480;19.024;2023-05-23T11:48:34;99640.38;;;28.74;39.69
58775;BME280;44545;47.480;19.024;2023-05-23T11:51:37;99624.16;;;28.77;41.37
58775;BME280;44545;47.480;19.024;2023-05-23T11:54:40;99631.78;;;29.94;37.72
58775;BME280;44545;47.480;19.024;2023-05-23T11:57:45;99619.75;;;30.28;38.73
58775;BME280;44545;47.480;19.024;2023-05-23T12:00:48;99616.94;;;30.55;37.26
58775;BME280;44545;47.480;19.024;2023-05-23T12:03:51;99602.69;;;30.29;36.48
58775;BME280;44545;47.480;19.024;2023-05-23T12:06:54;99589.44;;;29.26;39.10
58775;BME280;44545;47.480;19.024;2023-05-23T12:09:56;99588.50;;;29.00;38.96
58775;BME280;44545;47.480;19.024;2023-05-23T12:12:59;99588.66;;;28.95;38.71
58775;BME280;44545;47.480;19.024;2023-05-23T12:16:02;99577.97;;;28.67;39.73
58775;BME280;44545;47.480;19.024;2023-05-23T12:19:06;99578.25;;;29.13;38.31
58775;BME280;44545;47.480;19.024;2023-05-23T12:22:08;99573.25;;;29.52;38.26
58775;BME280;44545;47.480;19.024;2023-05-23T12:25:11;99568.66;;;30.05;36.57
58775;BME280;44545;47.480;19.024;2023-05-23T12:28:13;99568.00;;;29.74;36.61
58775;BME280;44545;47.480;19.024;2023-05-23T12:31:19;99565.28;;;29.76;36.97
58775;BME280;44545;47.480;19.024;2023-05-23T12:34:22;99557.88;;;29.57;36.45
58775;BME280;44545;47.480;19.024;2023-05-23T12:37:24;99562.16;;;29.38;35.90
58775;BME280;44545;47.480;19.024;2023-05-23T12:40:27;99554.69;;;29.21;36.06
58775;BME280;44545;47.480;19.024;2023-05-23T12:43:29;99545.78;;;27.81;39.58
58775;BME280;44545;47.480;19.024;2023-05-23T12:46:32;99549.63;;;27.06;40.93
58775;BME280;44545;47.480;19.024;2023-05-23T12:49:34;99549.41;;;27.48;40.66
58775;BME280;44545;47.480;19.024;2023-05-23T12:52:37;99539.81;;;28.01;38.26
58775;BME280;44545;47.480;19.024;2023-05-23T12:55:41;99556.69;;;27.42;40.13
58775;BME280;44545;47.480;19.024;2023-05-23T12:58:44;99546.28;;;26.97;41.75
58775;BME280;44545;47.480;19.024;2023-05-23T13:01:46;99536.97;;;27.76;40.16
58775;BME280;44545;47.480;19.024;2023-05-23T13:04:48;99529.13;;;28.28;40.47
58775;BME280;44545;47.480;19.024;2023-05-23T13:07:50;99523.16;;;28.48;39.84
58775;BME280;44545;47.480;19.024;2023-05-23T13:10:53;99517.44;;;28.30;39.73
58775;BME280;44545;47.480;19.024;2023-05-23T13:13:55;99516.47;;;28.33;39.77
58775;BME280;44545;47.480;19.024;2023-05-23T13:16:58;99520.84;;;28.36;39.83
58775;BME280;44545;47.480;19.024;2023-05-23T13:20:00;99516.78;;;27.96;39.87
58775;BME280;44545;47.480;19.024;2023-05-23T13:23:06;99513.63;;;28.11;39.83
58775;BME280;44545;47.480;19.024;2023-05-23T13:26:09;99509.88;;;28.43;37.58
58775;BME280;44545;47.480;19.024;2023-05-23T13:29:11;99511.97;;;28.88;37.49
58775;BME280;44545;47.480;19.024;2023-05-23T13:32:13;99510.81;;;29.22;37.51
58775;BME280;44545;47.480;19.024;2023-05-23T13:35:16;99512.41;;;29.51;37.90
58775;BME280;44545;47.480;19.024;2023-05-23T13:38:19;99515.94;;;29.77;35.71
58775;BME280;44545;47.480;19.024;2023-05-23T13:41:21;99515.16;;;29.50;35.21
58775;BME280;44545;47.480;19.024;2023-05-23T13:44:24;99506.84;;;29.57;36.26
58775;BME280;44545;47.480;19.024;2023-05-23T13:47:26;99499.56;;;29.59;34.36
58775;BME280;44545;47.480;19.024;2023-05-23T13:50:28;99511.25;;;29.58;36.18
58775;BME280;44545;47.480;19.024;2023-05-23T13:53:31;99507.69;;;29.58;33.78
58775;BME280;44545;47.480;19.024;2023-05-23T13:56:36;99511.28;;;29.33;35.12
58775;BME280;44545;47.480;19.024;2023-05-23T13:59:40;99502.38;;;28.81;38.03
58775;BME280;44545;47.480;19.024;2023-05-23T14:02:43;99498.44;;;28.10;37.98
58775;BME280;44545;47.480;19.024;2023-05-23T14:05:45;99501.56;;;27.96;38.80
58775;BME280;44545;47.480;19.024;2023-05-23T14:08:48;99490.34;;;27.83;38.43
58775;BME280;44545;47.480;19.024;2023-05-23T14:11:50;99492.34;;;27.75;37.16
58775;BME280;44545;47.480;19.024;2023-05-23T14:14:53;99494.44;;;27.95;38.74
58775;BME280;44545;47.480;19.024;2023-05-23T14:17:55;99496.31;;;27.93;34.16
58775;BME280;44545;47.480;19.024;2023-05-23T14:20:58;99491.41;;;27.76;33.30
58775;BME280;44545;47.480;19.024;2023-05-23T14:24:01;99481.69;;;28.03;32.36
58775;BME280;44545;47.480;19.024;2023-05-23T14:27:03;99473.00;;;28.23;33.70
58775;BME280;44545;47.480;19.024;2023-05-23T14:30:06;99470.88;;;28.33;34.04
58775;BME280;44545;47.480;19.024;2023-05-23T14:33:09;99463.06;;;27.99;35.14
58775;BME280;44545;47.480;19.024;2023-05-23T14:36:12;99463.62;;;27.80;34.62
58775;BME280;44545;47.480;19.024;2023-05-23T14:39:14;99470.28;;;27.97;35.93
58775;BME280;44545;47.480;19.024;2023-05-23T14:42:17;99471.38;;;27.90;35.71
58775;BME280;44545;47.480;19.024;2023-05-23T14:45:20;99473.34;;;27.84;35.36
58775;BME280;44545;47.480;19.024;2023-05-23T14:48:22;99467.44;;;28.01;35.47
58775;BME280;44545;47.480;19.024;2023-05-23T14:51:25;99471.62;;;27.82;35.15
58775;BME280;44545;47.480;19.024;2023-05-23T14:54:46;99474.13;;;27.57;36.67
58775;BME280;44545;47.480;19.024;2023-05-23T14:57:48;99477.44;;;27.66;37.50
58775;BME280;44545;47.480;19.024;2023-05-23T15:00:51;99476.91;;;27.54;38.09
58775;BME280;44545;47.480;19.024;2023-05-23T15:03:53;99476.56;;;27.66;38.06
58775;BME280;44545;47.480;19.024;2023-05-23T15:06:56;99477.25;;;27.73;38.42
58775;BME280;44545;47.480;19.024;2023-05-23T15:09:58;99482.75;;;27.68;38.55
58775;BME280;44545;47.480;19.024;2023-05-23T15:13:01;99474.87;;;27.93;37.61
58775;BME280;44545;47.480;19.024;2023-05-23T15:16:05;99471.28;;;27.93;37.56
58775;BME280;44545;47.480;19.024;2023-05-23T15:19:09;99480.09;;;27.66;38.28
